PWSweather.com
Personal Weather Stations
Station Observations
KMAMEDFI2
Medfield, MA 02052

Medfield, MA 02052

Lat: 42.1900822, Lon: -71.3296889

Elevation: 138

Station Type: Rainwise WS MK-III

http://www.medfieldweather.com

High Low Average
Temperature 56.5°F13.6°C 33.9°F1.1°C 50.4°F10.2°C
Dew Point 55.7°F13.2°C 29.0°F-1.7°C 49.4°F9.7°C
Winds 10.4 mph 16.7 kmh Calm Calm 5.0 mph S8.0 kmh S
Wind Gusts 25.3 mph40.7 kmh -- 9.0 mph14.5 kmh
Humidity 97% 82% 96%
Pressure 29.95 in1014.2 mb 29.21 in989.2 mb -
Precipitation 1.61 in40.9 mm - -
Hour Temp Dew Point Humidity Winds Wind Gusts Pressure Precip Precip Rate Daily Precip Total
12:00 AM 48.1°F8.9°C 47.3°F8.5°C 97% 2.3 mph SSW3.7 kmh SSW 5.8 mph9.3 kmh 29.95 in1014.2 mb - 0.17 in4.3 mm 0.26 in6.6 mm
12:10 AM 48.6°F9.2°C 47.8°F8.8°C 97% 5.8 mph S9.3 kmh S 8.1 mph13.0 kmh 29.94 in1013.9 mb - 0.16 in4.1 mm 0.28 in7.1 mm
12:20 AM 49.2°F9.6°C 48.4°F9.1°C 97% 5.8 mph SW9.3 kmh SW 9.2 mph14.8 kmh 29.95 in1014.2 mb - 0.18 in4.6 mm 0.32 in8.1 mm
12:30 AM 49.5°F9.7°C 48.7°F9.3°C 97% 6.9 mph SSW11.1 kmh SSW 8.1 mph13.0 kmh 29.95 in1014.2 mb - 0.18 in4.6 mm 0.35 in8.9 mm
12:40 AM 49.9°F9.9°C 49.1°F9.5°C 97% 8.1 mph SSW13.0 kmh SSW 9.2 mph14.8 kmh 29.95 in1014.2 mb - 0.18 in4.6 mm 0.38 in9.7 mm
12:50 AM 49.9°F9.9°C 49.1°F9.5°C 97% 6.9 mph SE11.1 kmh SE 21.9 mph35.2 kmh 29.95 in1014.2 mb - 0.18 in4.6 mm 0.41 in10.4 mm
01:00 AM 49.9°F9.9°C 49.1°F9.5°C 97% 6.9 mph SW11.1 kmh SW 11.5 mph18.5 kmh 29.95 in1014.2 mb - 0.17 in4.3 mm 1.22 in31.0 mm
01:10 AM 49.8°F9.9°C 49.0°F9.4°C 97% 5.8 mph S9.3 kmh S 9.2 mph14.8 kmh 29.94 in1013.9 mb - 0.16 in4.1 mm 0.01 in0.3 mm
01:20 AM 50.0°F10.0°C 49.1°F9.5°C 97% 9.2 mph SE14.8 kmh SE 13.8 mph22.2 kmh 29.94 in1013.9 mb - 0.16 in4.1 mm 0.04 in1.0 mm
01:30 AM 49.9°F9.9°C 49.1°F9.5°C 97% 2.3 mph S3.7 kmh S 8.1 mph13.0 kmh 29.94 in1013.9 mb - 0.14 in3.6 mm 0.05 in1.3 mm
01:40 AM 49.9°F9.9°C 49.1°F9.5°C 97% 3.5 mph SSW5.6 kmh SSW 9.2 mph14.8 kmh 29.94 in1013.9 mb - 0.12 in3.0 mm 0.07 in1.8 mm
01:50 AM 49.9°F9.9°C 49.1°F9.5°C 97% 4.6 mph SE7.4 kmh SE 6.9 mph11.1 kmh 29.94 in1013.9 mb - 0.10 in2.5 mm 0.08 in2.0 mm
02:00 AM 49.9°F9.9°C 49.1°F9.5°C 97% 5.8 mph S9.3 kmh S 25.3 mph40.7 kmh 29.92 in1013.2 mb - 0.08 in2.0 mm 0.08 in2.0 mm
02:10 AM 49.9°F9.9°C 49.1°F9.5°C 97% 3.5 mph W5.6 kmh W 6.9 mph11.1 kmh 29.92 in1013.2 mb - 0.07 in1.8 mm 0.08 in2.0 mm
02:20 AM 49.9°F9.9°C 49.0°F9.4°C 97% 4.6 mph SSW7.4 kmh SSW 9.2 mph14.8 kmh 29.92 in1013.2 mb - 0.06 in1.5 mm 0.09 in2.3 mm
02:30 AM 49.8°F9.9°C 48.9°F9.4°C 97% 5.8 mph SE9.3 kmh SE 11.5 mph18.5 kmh 29.92 in1013.2 mb - 0.04 in1.0 mm 0.09 in2.3 mm
02:40 AM 49.8°F9.9°C 49.0°F9.4°C 97% 4.6 mph S7.4 kmh S 8.1 mph13.0 kmh 29.91 in1012.9 mb - 0.03 in0.8 mm 0.10 in2.5 mm
02:50 AM 49.8°F9.9°C 48.9°F9.4°C 97% 6.9 mph SSE11.1 kmh SSE 9.2 mph14.8 kmh 29.90 in1012.5 mb - 0.03 in0.8 mm 0.10 in2.5 mm
03:00 AM 49.8°F9.9°C 49.0°F9.4°C 97% 4.6 mph S7.4 kmh S 5.8 mph9.3 kmh 29.90 in1012.5 mb - 0.02 in0.5 mm 0.10 in2.5 mm
03:10 AM 49.6°F9.8°C 48.8°F9.3°C 97% 4.6 mph S7.4 kmh S 3.5 mph5.6 kmh 29.90 in1012.5 mb - 0.02 in0.5 mm 0.10 in2.5 mm
03:20 AM 49.7°F9.8°C 48.9°F9.4°C 97% 2.3 mph SSE3.7 kmh SSE 2.3 mph3.7 kmh 29.90 in1012.5 mb - 0.01 in0.3 mm 0.10 in2.5 mm
03:30 AM 49.8°F9.9°C 49.0°F9.4°C 97% 4.6 mph SW7.4 kmh SW 6.9 mph11.1 kmh 29.88 in1011.9 mb - 0.01 in0.3 mm 0.10 in2.5 mm
03:40 AM 50.0°F10.0°C 49.2°F9.6°C 97% 2.3 mph SW3.7 kmh SW 9.2 mph14.8 kmh 29.88 in1011.9 mb - 0.01 in0.3 mm 0.10 in2.5 mm
03:50 AM 49.7°F9.8°C 48.9°F9.4°C 97% 6.9 mph SSE11.1 kmh SSE 8.1 mph13.0 kmh 29.88 in1011.9 mb - 0.01 in0.3 mm 0.11 in2.8 mm
04:00 AM 49.9°F9.9°C 49.1°F9.5°C 97% 4.6 mph SE7.4 kmh SE 5.8 mph9.3 kmh 29.87 in1011.5 mb - 0.01 in0.3 mm 0.11 in2.8 mm
04:10 AM 49.9°F9.9°C 49.1°F9.5°C 97% 4.6 mph SSE7.4 kmh SSE 8.1 mph13.0 kmh 29.86 in1011.2 mb - 0.01 in0.3 mm 0.11 in2.8 mm
04:20 AM 50.1°F10.1°C 49.3°F9.6°C 97% 3.5 mph W5.6 kmh W 3.5 mph5.6 kmh 29.86 in1011.2 mb - 0.01 in0.3 mm 0.11 in2.8 mm
04:30 AM 50.2°F10.1°C 49.4°F9.7°C 97% 4.6 mph SSE7.4 kmh SSE 6.9 mph11.1 kmh 29.86 in1011.2 mb - 0.01 in0.3 mm 0.11 in2.8 mm
04:40 AM 50.3°F10.2°C 49.5°F9.7°C 97% 4.6 mph S7.4 kmh S 8.1 mph13.0 kmh 29.86 in1011.2 mb - 0.01 in0.3 mm 0.11 in2.8 mm
04:50 AM 50.4°F10.2°C 49.6°F9.8°C 97% 4.6 mph S7.4 kmh S 5.8 mph9.3 kmh 29.85 in1010.8 mb - 0.00 in0.0 mm 0.11 in2.8 mm
05:00 AM 50.6°F10.3°C 49.8°F9.9°C 97% 5.8 mph S9.3 kmh S 8.1 mph13.0 kmh 29.84 in1010.5 mb - 0.00 in0.0 mm 0.11 in2.8 mm
05:10 AM 50.7°F10.4°C 49.9°F9.9°C 97% 3.5 mph SSE5.6 kmh SSE 5.8 mph9.3 kmh 29.83 in1010.2 mb - 0.00 in0.0 mm 0.11 in2.8 mm
05:20 AM 50.9°F10.5°C 50.1°F10.1°C 97% 5.8 mph SSE9.3 kmh SSE 8.1 mph13.0 kmh 29.82 in1009.8 mb - 0.01 in0.3 mm 0.12 in3.0 mm
05:30 AM 50.9°F10.5°C 50.0°F10.0°C 97% 4.6 mph SSE7.4 kmh SSE 5.8 mph9.3 kmh 29.82 in1009.8 mb - 0.01 in0.3 mm 0.12 in3.0 mm
05:40 AM 51.1°F10.6°C 50.3°F10.2°C 97% 4.6 mph S7.4 kmh S 8.1 mph13.0 kmh 29.82 in1009.8 mb - 0.01 in0.3 mm 0.12 in3.0 mm
05:50 AM 51.1°F10.6°C 50.3°F10.2°C 97% 6.9 mph S11.1 kmh S 6.9 mph11.1 kmh 29.82 in1009.8 mb - 0.01 in0.3 mm 0.12 in3.0 mm
06:00 AM 51.5°F10.8°C 50.7°F10.4°C 97% 6.9 mph S11.1 kmh S 19.6 mph31.5 kmh 29.82 in1009.8 mb - 0.02 in0.5 mm 0.13 in3.3 mm
06:10 AM 51.7°F10.9°C 50.9°F10.5°C 97% 5.8 mph S9.3 kmh S 13.8 mph22.2 kmh 29.81 in1009.5 mb - 0.02 in0.5 mm 0.13 in3.3 mm
06:20 AM 51.8°F11.0°C 50.9°F10.5°C 97% 3.5 mph SSE5.6 kmh SSE 3.5 mph5.6 kmh 29.80 in1009.1 mb - 0.01 in0.3 mm 0.13 in3.3 mm
06:30 AM 51.9°F11.1°C 51.1°F10.6°C 97% 4.6 mph SW7.4 kmh SW 8.1 mph13.0 kmh 29.80 in1009.1 mb - 0.01 in0.3 mm 0.13 in3.3 mm
06:40 AM 52.0°F11.1°C 51.1°F10.6°C 97% 5.8 mph S9.3 kmh S 5.8 mph9.3 kmh 29.80 in1009.1 mb - 0.01 in0.3 mm 0.13 in3.3 mm
06:50 AM 51.9°F11.1°C 51.1°F10.6°C 97% 8.1 mph SSE13.0 kmh SSE 8.1 mph13.0 kmh 29.79 in1008.8 mb - 0.01 in0.3 mm 0.13 in3.3 mm
07:00 AM 51.9°F11.1°C 51.1°F10.6°C 97% 5.8 mph SSE9.3 kmh SSE 15.0 mph24.1 kmh 29.78 in1008.5 mb - 0.00 in0.0 mm 0.13 in3.3 mm
07:10 AM 51.9°F11.1°C 51.1°F10.6°C 97% 5.8 mph SSE9.3 kmh SSE 11.5 mph18.5 kmh 29.78 in1008.5 mb - 0.00 in0.0 mm 0.13 in3.3 mm
07:20 AM 52.1°F11.2°C 51.3°F10.7°C 97% 5.8 mph SE9.3 kmh SE 9.2 mph14.8 kmh 29.78 in1008.5 mb - 0.01 in0.3 mm 0.14 in3.6 mm
07:30 AM 52.3°F11.3°C 51.5°F10.8°C 97% 4.6 mph SE7.4 kmh SE 5.8 mph9.3 kmh 29.78 in1008.5 mb - 0.01 in0.3 mm 0.14 in3.6 mm
07:40 AM 51.9°F11.1°C 51.1°F10.6°C 97% 4.6 mph SSE7.4 kmh SSE 6.9 mph11.1 kmh 29.78 in1008.5 mb - 0.01 in0.3 mm 0.14 in3.6 mm
07:50 AM 52.1°F11.2°C 51.2°F10.7°C 97% 4.6 mph SSE7.4 kmh SSE 6.9 mph11.1 kmh 29.77 in1008.1 mb - 0.01 in0.3 mm 0.14 in3.6 mm
08:00 AM 51.6°F10.9°C 50.8°F10.4°C 97% 4.6 mph ESE7.4 kmh ESE 9.2 mph14.8 kmh 29.76 in1007.8 mb - 0.02 in0.5 mm 0.15 in3.8 mm
08:10 AM 51.8°F11.0°C 51.0°F10.6°C 97% 5.8 mph SE9.3 kmh SE 5.8 mph9.3 kmh 29.75 in1007.5 mb - 0.02 in0.5 mm 0.15 in3.8 mm
08:20 AM 52.5°F11.4°C 51.7°F10.9°C 97% 4.6 mph SW7.4 kmh SW 11.5 mph18.5 kmh 29.74 in1007.1 mb - 0.01 in0.3 mm 0.15 in3.8 mm
08:30 AM 52.6°F11.4°C 51.8°F11.0°C 97% 6.9 mph SE11.1 kmh SE 9.2 mph14.8 kmh 29.73 in1006.8 mb - 0.01 in0.3 mm 0.15 in3.8 mm
08:40 AM 52.7°F11.5°C 51.8°F11.0°C 97% 4.6 mph SE7.4 kmh SE 5.8 mph9.3 kmh 29.73 in1006.8 mb - 0.02 in0.5 mm 0.16 in4.1 mm
08:50 AM 52.6°F11.4°C 51.8°F11.0°C 97% 4.6 mph SSW7.4 kmh SSW 9.2 mph14.8 kmh 29.72 in1006.4 mb - 0.02 in0.5 mm 0.16 in4.1 mm
09:00 AM 52.8°F11.6°C 52.0°F11.1°C 97% 5.8 mph S9.3 kmh S 9.2 mph14.8 kmh 29.72 in1006.4 mb - 0.01 in0.3 mm 0.16 in4.1 mm
09:10 AM 52.9°F11.6°C 52.1°F11.2°C 97% 4.6 mph S7.4 kmh S 9.2 mph14.8 kmh 29.71 in1006.1 mb - 0.01 in0.3 mm 0.16 in4.1 mm
09:20 AM 53.4°F11.9°C 52.6°F11.4°C 97% 4.6 mph S7.4 kmh S 8.1 mph13.0 kmh 29.70 in1005.8 mb - 0.01 in0.3 mm 0.16 in4.1 mm
09:30 AM 53.6°F12.0°C 52.8°F11.6°C 97% 5.8 mph SSE9.3 kmh SSE 11.5 mph18.5 kmh 29.70 in1005.8 mb - 0.01 in0.3 mm 0.16 in4.1 mm
09:40 AM 53.7°F12.1°C 52.9°F11.6°C 97% 8.1 mph SSE13.0 kmh SSE 9.2 mph14.8 kmh 29.70 in1005.8 mb - 0.00 in0.0 mm 0.16 in4.1 mm
09:50 AM 53.8°F12.1°C 53.0°F11.7°C 97% 5.8 mph S9.3 kmh S 8.1 mph13.0 kmh 29.69 in1005.4 mb - 0.01 in0.3 mm 0.17 in4.3 mm
10:00 AM 53.8°F12.1°C 53.0°F11.7°C 97% 4.6 mph SSE7.4 kmh SSE 10.4 mph16.7 kmh 29.68 in1005.1 mb - 0.02 in0.5 mm 0.18 in4.6 mm
10:10 AM 53.9°F12.2°C 53.1°F11.7°C 97% 8.1 mph S13.0 kmh S 16.1 mph25.9 kmh 29.68 in1005.1 mb - 0.03 in0.8 mm 0.19 in4.8 mm
10:20 AM 54.0°F12.2°C 53.2°F11.8°C 97% 6.9 mph S11.1 kmh S 6.9 mph11.1 kmh 29.67 in1004.7 mb - 0.03 in0.8 mm 0.19 in4.8 mm
10:30 AM 54.1°F12.3°C 53.2°F11.8°C 97% 5.8 mph SE9.3 kmh SE 5.8 mph9.3 kmh 29.66 in1004.4 mb - 0.04 in1.0 mm 0.20 in5.1 mm
10:40 AM 53.9°F12.2°C 53.1°F11.7°C 97% 4.6 mph SE7.4 kmh SE 21.9 mph35.2 kmh 29.66 in1004.4 mb - 0.05 in1.3 mm 0.21 in5.3 mm
11:00 AM 54.2°F12.3°C 53.4°F11.9°C 97% 4.6 mph S7.4 kmh S 11.5 mph18.5 kmh 29.65 in1004.1 mb - 0.04 in1.0 mm 0.22 in5.6 mm
11:10 AM 54.4°F12.4°C 53.6°F12.0°C 97% 4.6 mph SE7.4 kmh SE 9.2 mph14.8 kmh 29.63 in1003.4 mb - 0.04 in1.0 mm 0.23 in5.8 mm
11:20 AM 54.1°F12.3°C 53.3°F11.8°C 97% 4.6 mph S7.4 kmh S 8.1 mph13.0 kmh 29.63 in1003.4 mb - 0.06 in1.5 mm 0.25 in6.4 mm
11:30 AM 53.9°F12.2°C 53.1°F11.7°C 97% 3.5 mph W5.6 kmh W 5.8 mph9.3 kmh 29.62 in1003.0 mb - 0.08 in2.0 mm 0.28 in7.1 mm
11:40 AM 53.9°F12.2°C 53.1°F11.7°C 97% 4.6 mph SE7.4 kmh SE 9.2 mph14.8 kmh 29.60 in1002.4 mb - 0.08 in2.0 mm 0.29 in7.4 mm
11:50 AM 53.7°F12.1°C 52.9°F11.6°C 97% 5.8 mph SE9.3 kmh SE 18.4 mph29.6 kmh 29.60 in1002.4 mb - 0.09 in2.3 mm 0.30 in7.6 mm
12:00 PM 53.7°F12.1°C 52.9°F11.6°C 97% 3.5 mph S5.6 kmh S 9.2 mph14.8 kmh 29.58 in1001.7 mb - 0.09 in2.3 mm 0.31 in7.9 mm
12:10 PM 53.8°F12.1°C 53.0°F11.7°C 97% 6.9 mph S11.1 kmh S 8.1 mph13.0 kmh 29.57 in1001.4 mb - 0.10 in2.5 mm 0.33 in8.4 mm
12:20 PM 53.8°F12.1°C 53.0°F11.7°C 97% 4.6 mph S7.4 kmh S 9.2 mph14.8 kmh 29.56 in1001.0 mb - 0.10 in2.5 mm 0.35 in8.9 mm
12:30 PM 53.7°F12.1°C 52.9°F11.6°C 97% 6.9 mph S11.1 kmh S 9.2 mph14.8 kmh 29.54 in1000.3 mb - 0.09 in2.3 mm 0.36 in9.1 mm
12:40 PM 53.8°F12.1°C 53.0°F11.7°C 97% 6.9 mph SE11.1 kmh SE 16.1 mph25.9 kmh 29.54 in1000.3 mb - 0.08 in2.0 mm 0.37 in9.4 mm
12:50 PM 53.9°F12.2°C 53.1°F11.7°C 97% 6.9 mph SE11.1 kmh SE 8.1 mph13.0 kmh 29.53 in1000.0 mb - 0.12 in3.0 mm 0.42 in10.7 mm
01:00 PM 54.0°F12.2°C 53.2°F11.8°C 97% 6.9 mph SE11.1 kmh SE 9.2 mph14.8 kmh 29.51 in999.3 mb - 0.14 in3.6 mm 0.45 in11.4 mm
01:10 PM 54.1°F12.3°C 53.3°F11.8°C 97% 8.1 mph SSE13.0 kmh SSE 9.2 mph14.8 kmh 29.50 in999.0 mb - 0.14 in3.6 mm 0.47 in11.9 mm
01:20 PM 53.9°F12.2°C 53.1°F11.7°C 97% 6.9 mph S11.1 kmh S 8.1 mph13.0 kmh 29.49 in998.6 mb - 0.15 in3.8 mm 0.49 in12.4 mm
01:30 PM 54.1°F12.3°C 53.3°F11.8°C 97% 8.1 mph SSE13.0 kmh SSE 16.1 mph25.9 kmh 29.48 in998.3 mb - 0.16 in4.1 mm 0.51 in13.0 mm
01:40 PM 54.4°F12.4°C 53.6°F12.0°C 97% 5.8 mph SW9.3 kmh SW 13.8 mph22.2 kmh 29.46 in997.6 mb - 0.15 in3.8 mm 0.52 in13.2 mm
01:50 PM 54.8°F12.7°C 54.0°F12.2°C 97% 9.2 mph S14.8 kmh S 17.3 mph27.8 kmh 29.46 in997.6 mb - 0.14 in3.6 mm 0.56 in14.2 mm
02:00 PM 55.0°F12.8°C 54.2°F12.3°C 97% 6.9 mph SSE11.1 kmh SSE 13.8 mph22.2 kmh 29.45 in997.3 mb - 0.16 in4.1 mm 0.60 in15.2 mm
02:10 PM 55.1°F12.8°C 54.3°F12.4°C 97% 5.8 mph SE9.3 kmh SE 15.0 mph24.1 kmh 29.43 in996.6 mb - 0.17 in4.3 mm 0.63 in16.0 mm
02:20 PM 54.9°F12.7°C 54.1°F12.3°C 97% 4.6 mph SSE7.4 kmh SSE 8.1 mph13.0 kmh 29.41 in995.9 mb - 0.18 in4.6 mm 0.66 in16.8 mm
02:30 PM 55.1°F12.8°C 54.3°F12.4°C 97% 5.8 mph SE9.3 kmh SE 11.5 mph18.5 kmh 29.40 in995.6 mb - 0.17 in4.3 mm 0.68 in17.3 mm
02:40 PM 55.3°F12.9°C 54.5°F12.5°C 97% 6.9 mph SE11.1 kmh SE 9.2 mph14.8 kmh 29.40 in995.6 mb - 0.21 in5.3 mm 0.73 in18.5 mm
02:50 PM 55.4°F13.0°C 54.6°F12.6°C 97% 4.6 mph SW7.4 kmh SW 2.3 mph3.7 kmh 29.38 in994.9 mb - 0.21 in5.3 mm 0.76 in19.3 mm
03:00 PM 55.6°F13.1°C 54.8°F12.7°C 97% 8.1 mph S13.0 kmh S 11.5 mph18.5 kmh 29.37 in994.6 mb - 0.18 in4.6 mm 0.78 in19.8 mm
03:10 PM 55.6°F13.1°C 54.8°F12.7°C 97% 3.5 mph SSE5.6 kmh SSE 10.4 mph16.7 kmh 29.36 in994.2 mb - 0.18 in4.6 mm 0.81 in20.6 mm
03:20 PM 55.6°F13.1°C 54.8°F12.7°C 97% 4.6 mph SSE7.4 kmh SSE 8.1 mph13.0 kmh 29.34 in993.6 mb - 0.18 in4.6 mm 0.83 in21.1 mm
03:30 PM 55.3°F12.9°C 54.5°F12.5°C 97% 4.6 mph SE7.4 kmh SE 8.1 mph13.0 kmh 29.33 in993.2 mb - 0.18 in4.6 mm 0.86 in21.8 mm
03:40 PM 55.3°F12.9°C 54.5°F12.5°C 97% 6.9 mph SSE11.1 kmh SSE 18.4 mph29.6 kmh 29.33 in993.2 mb - 0.16 in4.1 mm 0.89 in22.6 mm
03:50 PM 55.3°F12.9°C 54.5°F12.5°C 97% 5.8 mph SE9.3 kmh SE 9.2 mph14.8 kmh 29.30 in992.2 mb - 0.18 in4.6 mm 0.94 in23.9 mm
04:00 PM 55.5°F13.1°C 54.7°F12.6°C 97% 9.2 mph S14.8 kmh S 16.1 mph25.9 kmh 29.29 in991.9 mb - 0.23 in5.8 mm 1.01 in25.7 mm
04:10 PM 55.6°F13.1°C 54.8°F12.7°C 97% 5.8 mph SE9.3 kmh SE 11.5 mph18.5 kmh 29.28 in991.5 mb - 0.27 in6.9 mm 1.07 in27.2 mm
04:20 PM 55.4°F13.0°C 54.6°F12.6°C 97% 9.2 mph SSE14.8 kmh SSE 16.1 mph25.9 kmh 29.28 in991.5 mb - 0.28 in7.1 mm 1.11 in28.2 mm
04:30 PM 55.6°F13.1°C 54.8°F12.7°C 97% 4.6 mph S7.4 kmh S 10.4 mph16.7 kmh 29.28 in991.5 mb - 0.29 in7.4 mm 1.15 in29.2 mm
04:40 PM 55.6°F13.1°C 54.8°F12.7°C 97% 5.8 mph SW9.3 kmh SW 11.5 mph18.5 kmh 29.29 in991.9 mb - 0.29 in7.4 mm 1.18 in30.0 mm
04:50 PM 55.9°F13.3°C 55.1°F12.8°C 97% 3.5 mph SSE5.6 kmh SSE 8.1 mph13.0 kmh 29.29 in991.9 mb - 0.29 in7.4 mm 1.22 in31.0 mm
05:00 PM 56.1°F13.4°C 55.3°F12.9°C 97% 4.6 mph S7.4 kmh S 8.1 mph13.0 kmh 29.27 in991.2 mb - 0.25 in6.4 mm 1.25 in31.8 mm
05:10 PM 56.4°F13.6°C 55.6°F13.1°C 97% 5.8 mph SE9.3 kmh SE 6.9 mph11.1 kmh 29.25 in990.5 mb - 0.21 in5.3 mm 1.28 in32.5 mm
05:20 PM 56.5°F13.6°C 55.7°F13.2°C 97% 5.8 mph S9.3 kmh S 10.4 mph16.7 kmh 29.23 in989.8 mb - 0.18 in4.6 mm 1.29 in32.8 mm
05:30 PM 56.4°F13.6°C 55.6°F13.1°C 97% 4.6 mph S7.4 kmh S 8.1 mph13.0 kmh 29.23 in989.8 mb - 0.16 in4.1 mm 1.30 in33.0 mm
05:40 PM 56.4°F13.6°C 55.6°F13.1°C 97% 4.6 mph SSW7.4 kmh SSW 11.5 mph18.5 kmh 29.23 in989.8 mb - 0.14 in3.6 mm 1.32 in33.5 mm
05:50 PM 56.3°F13.5°C 55.5°F13.1°C 97% 5.8 mph SSE9.3 kmh SSE 9.2 mph14.8 kmh 29.21 in989.2 mb - 0.12 in3.0 mm 1.34 in34.0 mm
06:00 PM 56.2°F13.4°C 55.4°F13.0°C 97% 4.6 mph S7.4 kmh S 10.4 mph16.7 kmh 29.21 in989.2 mb - 0.09 in2.3 mm 1.34 in34.0 mm
06:10 PM 56.0°F13.3°C 55.2°F12.9°C 97% 3.5 mph ESE5.6 kmh ESE 2.3 mph3.7 kmh 29.21 in989.2 mb - 0.08 in2.0 mm 1.36 in34.5 mm
06:20 PM 55.8°F13.2°C 55.0°F12.8°C 97% 3.5 mph S5.6 kmh S 5.8 mph9.3 kmh 29.22 in989.5 mb - 0.12 in3.0 mm 1.41 in35.8 mm
06:30 PM 55.7°F13.2°C 54.9°F12.7°C 97% 4.6 mph SW7.4 kmh SW 5.8 mph9.3 kmh 29.22 in989.5 mb - 0.14 in3.6 mm 1.44 in36.6 mm
06:40 PM 55.7°F13.2°C 54.9°F12.7°C 97% 4.6 mph S7.4 kmh S 8.1 mph13.0 kmh 29.22 in989.5 mb - 0.16 in4.1 mm 1.47 in37.3 mm
06:50 PM 55.7°F13.2°C 54.8°F12.7°C 97% 4.6 mph W7.4 kmh W 5.8 mph9.3 kmh 29.24 in990.2 mb - 0.21 in5.3 mm 1.54 in39.1 mm
07:00 PM 54.6°F12.6°C 53.7°F12.1°C 97% 8.1 mph W13.0 kmh W 16.1 mph25.9 kmh 29.28 in991.5 mb - 0.24 in6.1 mm 1.58 in40.1 mm
07:10 PM 52.7°F11.5°C 51.9°F11.1°C 97% 5.8 mph W9.3 kmh W 8.1 mph13.0 kmh 29.30 in992.2 mb - 0.24 in6.1 mm 1.59 in40.4 mm
07:20 PM 51.9°F11.1°C 51.1°F10.6°C 97% 4.6 mph SW7.4 kmh SW 6.9 mph11.1 kmh 29.28 in991.5 mb - 0.19 in4.8 mm 1.60 in40.6 mm
07:30 PM 51.3°F10.7°C 50.5°F10.3°C 97% 4.6 mph W7.4 kmh W 9.2 mph14.8 kmh 29.28 in991.5 mb - 0.16 in4.1 mm 1.60 in40.6 mm
07:40 PM 50.7°F10.4°C 49.9°F9.9°C 97% 1.2 mph W1.9 kmh W 3.5 mph5.6 kmh 29.27 in991.2 mb - 0.14 in3.6 mm 1.61 in40.9 mm
07:50 PM 50.2°F10.1°C 49.4°F9.7°C 97% 2.3 mph W3.7 kmh W 2.3 mph3.7 kmh 29.25 in990.5 mb - 0.08 in2.0 mm 1.61 in40.9 mm
08:00 PM 49.7°F9.8°C 48.9°F9.4°C 97% Calm Calm -- 29.24 in990.2 mb - 0.04 in1.0 mm 1.61 in40.9 mm
08:10 PM 49.0°F9.4°C 48.2°F9.0°C 97% Calm Calm -- 29.24 in990.2 mb - 0.02 in0.5 mm 1.61 in40.9 mm
08:20 PM 47.8°F8.8°C 47.0°F8.3°C 97% 3.5 mph WSW5.6 kmh WSW 3.5 mph5.6 kmh 29.27 in991.2 mb - 0.01 in0.3 mm 1.61 in40.9 mm
08:30 PM 48.6°F9.2°C 47.8°F8.8°C 97% 5.8 mph WSW9.3 kmh WSW 13.8 mph22.2 kmh 29.30 in992.2 mb - 0.01 in0.3 mm 1.61 in40.9 mm
08:40 PM 48.3°F9.1°C 47.5°F8.6°C 97% 3.5 mph WNW5.6 kmh WNW 13.8 mph22.2 kmh 29.31 in992.6 mb - 0.00 in0.0 mm 1.61 in40.9 mm
08:50 PM 47.4°F8.6°C 46.6°F8.1°C 97% 6.9 mph WSW11.1 kmh WSW 11.5 mph18.5 kmh 29.34 in993.6 mb - 0.00 in0.0 mm 1.61 in40.9 mm
09:00 PM 46.7°F8.2°C 45.9°F7.7°C 97% 6.9 mph WSW11.1 kmh WSW 8.1 mph13.0 kmh 29.36 in994.2 mb - 0.00 in0.0 mm 1.61 in40.9 mm
09:10 PM 45.8°F7.7°C 45.0°F7.2°C 97% 9.2 mph WSW14.8 kmh WSW 15.0 mph24.1 kmh 29.39 in995.3 mb - 0.00 in0.0 mm 1.61 in40.9 mm
09:20 PM 45.4°F7.4°C 44.6°F7.0°C 97% 5.8 mph W9.3 kmh W 11.5 mph18.5 kmh 29.40 in995.6 mb - 0.00 in0.0 mm 1.61 in40.9 mm
09:30 PM 44.3°F6.8°C 43.2°F6.2°C 96% 5.8 mph W9.3 kmh W 5.8 mph9.3 kmh 29.42 in996.3 mb - 0.00 in0.0 mm 1.61 in40.9 mm
09:40 PM 43.4°F6.3°C 42.4°F5.8°C 96% 4.6 mph WNW7.4 kmh WNW 8.1 mph13.0 kmh 29.42 in996.3 mb - 0.00 in0.0 mm 1.61 in40.9 mm
09:50 PM 42.3°F5.7°C 40.4°F4.7°C 93% 4.6 mph WSW7.4 kmh WSW 11.5 mph18.5 kmh 29.44 in997.0 mb - 0.00 in0.0 mm 1.61 in40.9 mm
10:00 PM 41.4°F5.2°C 39.6°F4.2°C 93% 4.6 mph W7.4 kmh W 8.1 mph13.0 kmh 29.44 in997.0 mb - 0.00 in0.0 mm 1.61 in40.9 mm
10:10 PM 40.9°F4.9°C 39.3°F4.1°C 94% 6.9 mph WSW11.1 kmh WSW 8.1 mph13.0 kmh 29.46 in997.6 mb - 0.00 in0.0 mm 1.61 in40.9 mm
10:20 PM 40.4°F4.7°C 38.5°F3.6°C 93% 6.9 mph WSW11.1 kmh WSW 11.5 mph18.5 kmh 29.47 in998.0 mb - 0.00 in0.0 mm 1.61 in40.9 mm
10:30 PM 40.1°F4.5°C 38.8°F3.8°C 95% 3.5 mph SW5.6 kmh SW 2.3 mph3.7 kmh 29.47 in998.0 mb - 0.00 in0.0 mm 1.61 in40.9 mm
10:40 PM 39.3°F4.1°C 38.3°F3.5°C 96% 4.6 mph WSW7.4 kmh WSW 6.9 mph11.1 kmh 29.48 in998.3 mb - 0.00 in0.0 mm 1.61 in40.9 mm
10:50 PM 38.6°F3.7°C 37.2°F2.9°C 95% 8.1 mph WSW13.0 kmh WSW 8.1 mph13.0 kmh 29.48 in998.3 mb - 0.00 in0.0 mm 1.61 in40.9 mm
11:00 PM 38.0°F3.3°C 35.8°F2.1°C 92% 6.9 mph WSW11.1 kmh WSW 13.8 mph22.2 kmh 29.49 in998.6 mb - 0.00 in0.0 mm 1.61 in40.9 mm
11:10 PM 37.3°F2.9°C 34.6°F1.4°C 90% 10.4 mph WSW16.7 kmh WSW 15.0 mph24.1 kmh 29.50 in999.0 mb - 0.00 in0.0 mm 1.61 in40.9 mm
11:20 PM 37.0°F2.8°C 33.7°F0.9°C 88% 4.6 mph WSW7.4 kmh WSW 5.8 mph9.3 kmh 29.50 in999.0 mb - 0.00 in0.0 mm 1.61 in40.9 mm
11:30 PM 36.5°F2.5°C 33.6°F0.9°C 89% 3.5 mph WNW5.6 kmh WNW 5.8 mph9.3 kmh 29.51 in999.3 mb - 0.00 in0.0 mm 1.61 in40.9 mm
11:40 PM 36.2°F2.3°C 33.5°F0.8°C 90% 4.6 mph SW7.4 kmh SW 5.8 mph9.3 kmh 29.53 in1000.0 mb - 0.00 in0.0 mm 1.61 in40.9 mm
11:50 PM 35.7°F2.1°C 32.8°F0.4°C 89% 3.5 mph WSW5.6 kmh WSW 5.8 mph9.3 kmh 29.54 in1000.3 mb - 0.00 in0.0 mm 1.61 in40.9 mm